sensor_id;sensor_type;location;lat;lon;timestamp;pressure;altitude;pressure_sealevel;temperature;humidity
46944;BME280;32678;43.852;25.952;2023-02-22T00:00:12;100915.84;;;12.54;51.46
46944;BME280;32678;43.852;25.952;2023-02-22T00:05:18;100918.28;;;12.58;51.06
46944;BME280;32678;43.852;25.952;2023-02-22T00:10:16;100900.22;;;12.49;51.28
46944;BME280;32678;43.852;25.952;2023-02-22T00:15:16;100923.03;;;12.49;51.38
46944;BME280;32678;43.852;25.952;2023-02-22T00:20:14;100929.16;;;12.49;51.28
46944;BME280;32678;43.852;25.952;2023-02-22T00:25:14;100920.25;;;12.30;51.77
46944;BME280;32678;43.852;25.952;2023-02-22T00:30:13;100933.31;;;12.08;52.12
46944;BME280;32678;43.852;25.952;2023-02-22T00:35:14;100936.47;;;11.93;52.89
46944;BME280;32678;43.852;25.952;2023-02-22T00:40:13;100927.16;;;11.85;53.29
46944;BME280;32678;43.852;25.952;2023-02-22T00:45:11;100924.53;;;11.85;53.11
46944;BME280;32678;43.852;25.952;2023-02-22T00:50:09;100925.56;;;11.81;53.32
46944;BME280;32678;43.852;25.952;2023-02-22T00:55:07;100918.63;;;12.03;52.82
46944;BME280;32678;43.852;25.952;2023-02-22T01:00:05;100924.16;;;11.95;52.90
46944;BME280;32678;43.852;25.952;2023-02-22T01:05:08;100918.38;;;11.86;52.96
46944;BME280;32678;43.852;25.952;2023-02-22T01:10:08;100920.16;;;11.85;52.91
46944;BME280;32678;43.852;25.952;2023-02-22T01:15:07;100908.94;;;11.80;52.94
46944;BME280;32678;43.852;25.952;2023-02-22T01:20:06;100916.28;;;11.95;52.21
46944;BME280;32678;43.852;25.952;2023-02-22T01:25:08;100917.13;;;11.96;51.87
46944;BME280;32678;43.852;25.952;2023-02-22T01:30:06;100908.78;;;11.85;52.33
46944;BME280;32678;43.852;25.952;2023-02-22T01:35:04;100909.97;;;11.76;52.40
46944;BME280;32678;43.852;25.952;2023-02-22T01:40:05;100921.84;;;11.35;53.62
46944;BME280;32678;43.852;25.952;2023-02-22T01:50:20;100914.19;;;11.54;53.06
46944;BME280;32678;43.852;25.952;2023-02-22T01:55:16;100925.38;;;11.60;52.62
46944;BME280;32678;43.852;25.952;2023-02-22T02:00:15;100925.16;;;11.66;52.25
46944;BME280;32678;43.852;25.952;2023-02-22T02:05:16;100920.97;;;11.61;52.06
46944;BME280;32678;43.852;25.952;2023-02-22T02:10:14;100934.13;;;11.35;52.55
46944;BME280;32678;43.852;25.952;2023-02-22T02:15:19;100915.66;;;11.38;52.64
46944;BME280;32678;43.852;25.952;2023-02-22T02:20:18;100912.25;;;11.34;52.42
46944;BME280;32678;43.852;25.952;2023-02-22T02:25:23;100898.31;;;11.34;51.94
46944;BME280;32678;43.852;25.952;2023-02-22T02:30:42;100918.56;;;11.55;51.53
46944;BME280;32678;43.852;25.952;2023-02-22T02:35:48;100922.63;;;11.63;51.27
46944;BME280;32678;43.852;25.952;2023-02-22T02:40:51;100926.28;;;11.59;51.15
46944;BME280;32678;43.852;25.952;2023-02-22T02:45:53;100932.91;;;11.69;50.81
46944;BME280;32678;43.852;25.952;2023-02-22T02:50:53;100928.53;;;11.70;50.90
46944;BME280;32678;43.852;25.952;2023-02-22T02:55:52;100931.88;;;11.49;51.21
46944;BME280;32678;43.852;25.952;2023-02-22T03:00:48;100934.34;;;11.80;50.68
46944;BME280;32678;43.852;25.952;2023-02-22T03:11:02;100934.94;;;11.63;51.12
46944;BME280;32678;43.852;25.952;2023-02-22T03:16:05;100942.69;;;11.66;50.92
46944;BME280;32678;43.852;25.952;2023-02-22T03:21:08;100949.63;;;11.42;51.74
46944;BME280;32678;43.852;25.952;2023-02-22T03:26:12;100950.34;;;11.47;51.57
46944;BME280;32678;43.852;25.952;2023-02-22T03:31:11;100954.44;;;11.54;51.46
46944;BME280;32678;43.852;25.952;2023-02-22T03:36:12;100947.31;;;11.33;52.06
46944;BME280;32678;43.852;25.952;2023-02-22T03:41:10;100938.19;;;11.18;52.56
46944;BME280;32678;43.852;25.952;2023-02-22T03:46:12;100947.47;;;11.01;53.29
46944;BME280;32678;43.852;25.952;2023-02-22T03:51:12;100955.75;;;11.15;52.97
46944;BME280;32678;43.852;25.952;2023-02-22T03:56:17;100967.44;;;11.33;52.61
46944;BME280;32678;43.852;25.952;2023-02-22T04:01:17;100963.94;;;11.06;53.63
46944;BME280;32678;43.852;25.952;2023-02-22T04:06:15;100969.50;;;11.23;53.25
46944;BME280;32678;43.852;25.952;2023-02-22T04:11:13;100965.16;;;11.22;53.22
46944;BME280;32678;43.852;25.952;2023-02-22T04:16:12;100967.41;;;11.06;53.94
46944;BME280;32678;43.852;25.952;2023-02-22T04:21:13;100964.13;;;11.00;54.09
46944;BME280;32678;43.852;25.952;2023-02-22T04:26:15;100966.69;;;11.01;53.94
46944;BME280;32678;43.852;25.952;2023-02-22T04:31:17;100960.19;;;10.85;54.40
46944;BME280;32678;43.852;25.952;2023-02-22T04:36:14;100961.84;;;10.89;54.25
46944;BME280;32678;43.852;25.952;2023-02-22T04:41:13;100969.66;;;10.91;54.20
46944;BME280;32678;43.852;25.952;2023-02-22T04:46:10;100969.56;;;10.94;54.06
46944;BME280;32678;43.852;25.952;2023-02-22T04:51:09;100973.28;;;10.86;54.56
46944;BME280;32678;43.852;25.952;2023-02-22T04:56:10;100979.53;;;10.82;54.82
46944;BME280;32678;43.852;25.952;2023-02-22T05:01:07;100980.72;;;11.00;54.35
46944;BME280;32678;43.852;25.952;2023-02-22T05:06:04;100981.00;;;10.91;54.94
46944;BME280;32678;43.852;25.952;2023-02-22T05:11:03;100981.69;;;10.98;54.48
46944;BME280;32678;43.852;25.952;2023-02-22T05:16:00;100983.69;;;11.17;53.71
46944;BME280;32678;43.852;25.952;2023-02-22T05:20:57;100985.69;;;11.09;53.91
46944;BME280;32678;43.852;25.952;2023-02-22T05:25:54;100990.63;;;10.91;54.56
46944;BME280;32678;43.852;25.952;2023-02-22T05:30:51;100994.44;;;10.80;54.83
46944;BME280;32678;43.852;25.952;2023-02-22T05:35:48;101001.25;;;10.58;55.65
46944;BME280;32678;43.852;25.952;2023-02-22T05:40:45;101000.69;;;10.76;55.35
46944;BME280;32678;43.852;25.952;2023-02-22T05:45:42;101009.09;;;10.88;54.90
46944;BME280;32678;43.852;25.952;2023-02-22T05:50:39;101018.41;;;10.98;54.69
46944;BME280;32678;43.852;25.952;2023-02-22T05:55:39;101012.69;;;11.13;54.48
46944;BME280;32678;43.852;25.952;2023-02-22T06:00:36;101013.19;;;11.24;54.00
46944;BME280;32678;43.852;25.952;2023-02-22T06:05:33;101024.53;;;11.26;54.23
46944;BME280;32678;43.852;25.952;2023-02-22T06:10:31;101041.41;;;11.17;54.71
46944;BME280;32678;43.852;25.952;2023-02-22T06:15:39;101031.81;;;11.16;54.77
46944;BME280;32678;43.852;25.952;2023-02-22T06:20:46;101048.16;;;11.26;54.80
46944;BME280;32678;43.852;25.952;2023-02-22T06:25:44;101054.13;;;11.31;54.74
46944;BME280;32678;43.852;25.952;2023-02-22T06:30:41;101060.25;;;11.30;54.89
46944;BME280;32678;43.852;25.952;2023-02-22T06:35:42;101072.19;;;11.40;54.80
46944;BME280;32678;43.852;25.952;2023-02-22T06:40:39;101072.19;;;11.40;55.16
46944;BME280;32678;43.852;25.952;2023-02-22T06:45:36;101065.06;;;11.71;54.48
46944;BME280;32678;43.852;25.952;2023-02-22T06:50:33;101064.69;;;11.56;54.87
46944;BME280;32678;43.852;25.952;2023-02-22T06:55:32;101067.38;;;11.54;55.32
46944;BME280;32678;43.852;25.952;2023-02-22T07:00:31;101077.34;;;11.71;55.07
46944;BME280;32678;43.852;25.952;2023-02-22T07:05:29;101053.00;;;11.66;55.17
46944;BME280;32678;43.852;25.952;2023-02-22T07:10:29;101072.53;;;11.57;56.30
46944;BME280;32678;43.852;25.952;2023-02-22T07:15:27;101074.97;;;11.36;57.48
46944;BME280;32678;43.852;25.952;2023-02-22T07:20:25;101075.78;;;11.38;57.86
46944;BME280;32678;43.852;25.952;2023-02-22T07:25:23;101086.22;;;11.39;58.11
46944;BME280;32678;43.852;25.952;2023-02-22T07:30:22;101088.19;;;11.60;57.95
46944;BME280;32678;43.852;25.952;2023-02-22T07:35:25;101081.50;;;11.78;58.01
46944;BME280;32678;43.852;25.952;2023-02-22T07:40:23;101079.00;;;11.75;58.47
46944;BME280;32678;43.852;25.952;2023-02-22T07:45:21;101082.41;;;12.03;58.10
46944;BME280;32678;43.852;25.952;2023-02-22T07:50:19;101074.91;;;12.18;58.08
46944;BME280;32678;43.852;25.952;2023-02-22T07:55:17;101072.56;;;12.35;57.79
46944;BME280;32678;43.852;25.952;2023-02-22T08:00:16;101082.63;;;12.47;58.00
46944;BME280;32678;43.852;25.952;2023-02-22T08:05:17;101081.59;;;12.76;57.20
46944;BME280;32678;43.852;25.952;2023-02-22T08:10:15;101086.94;;;12.74;58.08
46944;BME280;32678;43.852;25.952;2023-02-22T08:15:15;101085.19;;;12.73;57.63
46944;BME280;32678;43.852;25.952;2023-02-22T08:20:14;101080.84;;;12.95;56.95
46944;BME280;32678;43.852;25.952;2023-02-22T08:25:11;101077.03;;;13.27;55.75
46944;BME280;32678;43.852;25.952;2023-02-22T08:30:13;101084.22;;;13.45;55.04
46944;BME280;32678;43.852;25.952;2023-02-22T08:35:10;101087.53;;;13.72;54.31
46944;BME280;32678;43.852;25.952;2023-02-22T08:40:09;101082.59;;;13.85;54.47
46944;BME280;32678;43.852;25.952;2023-02-22T08:45:10;101081.97;;;14.00;53.77
46944;BME280;32678;43.852;25.952;2023-02-22T08:50:08;101081.53;;;14.11;53.55
46944;BME280;32678;43.852;25.952;2023-02-22T08:55:11;101076.66;;;14.22;52.84
46944;BME280;32678;43.852;25.952;2023-02-22T09:00:08;101078.44;;;14.42;52.25
46944;BME280;32678;43.852;25.952;2023-02-22T09:05:05;101077.56;;;14.21;52.67
46944;BME280;32678;43.852;25.952;2023-02-22T09:10:02;101078.59;;;14.39;52.35
46944;BME280;32678;43.852;25.952;2023-02-22T09:15:00;101087.88;;;14.47;52.03
46944;BME280;32678;43.852;25.952;2023-02-22T09:19:58;101083.66;;;14.43;51.87
46944;BME280;32678;43.852;25.952;2023-02-22T09:24:55;101080.25;;;14.41;51.46
46944;BME280;32678;43.852;25.952;2023-02-22T09:29:54;101077.00;;;14.55;50.36
46944;BME280;32678;43.852;25.952;2023-02-22T09:34:53;101073.56;;;14.53;50.65
46944;BME280;32678;43.852;25.952;2023-02-22T09:39:50;101072.81;;;14.69;50.28
46944;BME280;32678;43.852;25.952;2023-02-22T09:44:48;101065.72;;;14.90;49.81
46944;BME280;32678;43.852;25.952;2023-02-22T09:49:55;101064.84;;;14.90;49.74
46944;BME280;32678;43.852;25.952;2023-02-22T09:54:54;101056.09;;;15.08;48.59
46944;BME280;32678;43.852;25.952;2023-02-22T10:00:01;101068.00;;;15.16;48.63
46944;BME280;32678;43.852;25.952;2023-02-22T10:05:14;101064.63;;;15.32;48.47
46944;BME280;32678;43.852;25.952;2023-02-22T10:10:14;101062.34;;;15.43;48.36
46944;BME280;32678;43.852;25.952;2023-02-22T10:15:30;101057.50;;;15.34;47.95
46944;BME280;32678;43.852;25.952;2023-02-22T10:20:36;101055.78;;;15.51;48.03
46944;BME280;32678;43.852;25.952;2023-02-22T10:25:35;101058.63;;;15.83;47.26
46944;BME280;32678;43.852;25.952;2023-02-22T10:30:34;101050.50;;;15.69;47.98
46944;BME280;32678;43.852;25.952;2023-02-22T10:35:37;101050.16;;;15.76;48.04
46944;BME280;32678;43.852;25.952;2023-02-22T10:40:37;101034.75;;;15.84;48.03
46944;BME280;32678;43.852;25.952;2023-02-22T10:45:35;101022.69;;;15.79;47.36
46944;BME280;32678;43.852;25.952;2023-02-22T10:50:33;101025.72;;;15.88;47.46
46944;BME280;32678;43.852;25.952;2023-02-22T10:55:31;101022.44;;;15.83;46.81
46944;BME280;32678;43.852;25.952;2023-02-22T11:00:30;101020.28;;;15.91;46.99
46944;BME280;32678;43.852;25.952;2023-02-22T11:05:30;101006.78;;;15.97;46.68
46944;BME280;32678;43.852;25.952;2023-02-22T11:10:33;101005.44;;;16.06;46.56
46944;BME280;32678;43.852;25.952;2023-02-22T11:15:34;101010.56;;;16.09;46.27
46944;BME280;32678;43.852;25.952;2023-02-22T11:20:32;101006.75;;;16.15;46.21
46944;BME280;32678;43.852;25.952;2023-02-22T11:25:35;100993.06;;;16.07;46.10
46944;BME280;32678;43.852;25.952;2023-02-22T11:30:33;101000.59;;;16.14;45.74
46944;BME280;32678;43.852;25.952;2023-02-22T11:35:33;100987.41;;;15.97;45.43
46944;BME280;32678;43.852;25.952;2023-02-22T11:40:31;100992.41;;;16.19;45.22
46944;BME280;32678;43.852;25.952;2023-02-22T11:45:31;100994.47;;;15.96;44.83
46944;BME280;32678;43.852;25.952;2023-02-22T11:50:29;100993.44;;;15.99;44.63
46944;BME280;32678;43.852;25.952;2023-02-22T11:55:27;100991.03;;;16.12;43.47
46944;BME280;32678;43.852;25.952;2023-02-22T12:00:43;100985.25;;;16.21;43.34
46944;BME280;32678;43.852;25.952;2023-02-22T12:05:49;100983.56;;;16.20;43.66
46944;BME280;32678;43.852;25.952;2023-02-22T12:10:58;100990.06;;;16.30;43.36
46944;BME280;32678;43.852;25.952;2023-02-22T12:16:04;100979.69;;;15.75;45.17
46944;BME280;32678;43.852;25.952;2023-02-22T12:21:05;100979.69;;;15.75;44.43
46944;BME280;32678;43.852;25.952;2023-02-22T12:26:06;100975.13;;;15.62;44.64
46944;BME280;32678;43.852;25.952;2023-02-22T12:31:13;100973.63;;;15.56;44.59
46944;BME280;32678;43.852;25.952;2023-02-22T12:36:12;100981.66;;;15.72;43.90
46944;BME280;32678;43.852;25.952;2023-02-22T12:41:15;100973.66;;;15.73;44.09
46944;BME280;32678;43.852;25.952;2023-02-22T12:46:15;100966.69;;;16.05;42.93
46944;BME280;32678;43.852;25.952;2023-02-22T12:51:19;100974.28;;;15.78;43.54
46944;BME280;32678;43.852;25.952;2023-02-22T12:56:21;100979.31;;;15.83;43.92
46944;BME280;32678;43.852;25.952;2023-02-22T13:01:24;100979.38;;;15.64;44.50
46944;BME280;32678;43.852;25.952;2023-02-22T13:06:27;100971.06;;;15.54;44.43
46944;BME280;32678;43.852;25.952;2023-02-22T13:11:32;100972.41;;;15.63;44.58
46944;BME280;32678;43.852;25.952;2023-02-22T13:16:34;100971.13;;;15.70;44.22
46944;BME280;32678;43.852;25.952;2023-02-22T13:21:39;100977.91;;;15.76;43.81
46944;BME280;32678;43.852;25.952;2023-02-22T13:26:38;100972.06;;;15.69;43.93
46944;BME280;32678;43.852;25.952;2023-02-22T13:31:42;100975.91;;;15.64;44.00
46944;BME280;32678;43.852;25.952;2023-02-22T13:36:52;100981.81;;;15.86;43.57
46944;BME280;32678;43.852;25.952;2023-02-22T13:52:36;100984.34;;;16.22;43.02
46944;BME280;32678;43.852;25.952;2023-02-22T13:57:35;100988.91;;;16.18;43.39
46944;BME280;32678;43.852;25.952;2023-02-22T14:07:56;100992.69;;;15.80;44.49
46944;BME280;32678;43.852;25.952;2023-02-22T14:12:58;100987.50;;;15.78;44.66
46944;BME280;32678;43.852;25.952;2023-02-22T14:18:04;100991.41;;;16.04;44.29
46944;BME280;32678;43.852;25.952;2023-02-22T14:23:26;100979.94;;;15.71;44.97
46944;BME280;32678;43.852;25.952;2023-02-22T14:28:36;100997.44;;;15.73;45.19
46944;BME280;32678;43.852;25.952;2023-02-22T14:39:01;100998.44;;;15.71;45.58
46944;BME280;32678;43.852;25.952;2023-02-22T14:44:08;101003.50;;;15.58;46.26
46944;BME280;32678;43.852;25.952;2023-02-22T14:49:08;101000.22;;;15.53;46.64
46944;BME280;32678;43.852;25.952;2023-02-22T14:54:18;101004.03;;;15.65;46.65
46944;BME280;32678;43.852;25.952;2023-02-22T14:59:24;100994.59;;;15.59;46.83
46944;BME280;32678;43.852;25.952;2023-02-22T15:04:25;100995.66;;;15.38;47.06
46944;BME280;32678;43.852;25.952;2023-02-22T15:09:24;101005.06;;;15.43;46.70
46944;BME280;32678;43.852;25.952;2023-02-22T15:14:25;101002.69;;;15.56;46.35
46944;BME280;32678;43.852;25.952;2023-02-22T15:19:23;101001.25;;;15.68;46.18
46944;BME280;32678;43.852;25.952;2023-02-22T15:24:24;101005.06;;;15.43;46.57
46944;BME280;32678;43.852;25.952;2023-02-22T15:29:22;101002.31;;;15.45;46.88
46944;BME280;32678;43.852;25.952;2023-02-22T15:34:20;101000.66;;;15.44;47.00
46944;BME280;32678;43.852;25.952;2023-02-22T15:39:24;101002.50;;;15.78;46.38
46944;BME280;32678;43.852;25.952;2023-02-22T15:44:22;101012.03;;;15.63;46.52
46944;BME280;32678;43.852;25.952;2023-02-22T15:49:20;101010.78;;;15.70;46.41
46944;BME280;32678;43.852;25.952;2023-02-22T15:54:18;101008.69;;;15.24;47.38
46944;BME280;32678;43.852;25.952;2023-02-22T15:59:27;101020.66;;;15.12;47.64
46944;BME280;32678;43.852;25.952;2023-02-22T16:04:28;101009.63;;;15.04;47.63
46944;BME280;32678;43.852;25.952;2023-02-22T16:09:26;101023.22;;;15.32;47.35
46944;BME280;32678;43.852;25.952;2023-02-22T16:14:26;101028.88;;;15.06;47.99
46944;BME280;32678;43.852;25.952;2023-02-22T16:19:31;101034.59;;;14.78;49.09
46944;BME280;32678;43.852;25.952;2023-02-22T16:24:29;101036.94;;;14.65;49.57
46944;BME280;32678;43.852;25.952;2023-02-22T16:29:26;101039.25;;;14.53;50.24
46944;BME280;32678;43.852;25.952;2023-02-22T16:34:22;101031.38;;;14.71;49.68
46944;BME280;32678;43.852;25.952;2023-02-22T16:39:21;101046.88;;;14.98;49.26
46944;BME280;32678;43.852;25.952;2023-02-22T16:44:18;101043.59;;;14.93;49.08
46944;BME280;32678;43.852;25.952;2023-02-22T16:49:15;101055.63;;;14.61;49.67
46944;BME280;32678;43.852;25.952;2023-02-22T16:54:12;101052.00;;;14.43;49.72
46944;BME280;32678;43.852;25.952;2023-02-22T16:59:11;101058.97;;;14.24;50.07
46944;BME280;32678;43.852;25.952;2023-02-22T17:04:11;101043.31;;;13.79;50.82
46944;BME280;32678;43.852;25.952;2023-02-22T17:09:12;101038.31;;;13.93;50.68
46944;BME280;32678;43.852;25.952;2023-02-22T17:14:11;101056.94;;;14.30;49.76
46944;BME280;32678;43.852;25.952;2023-02-22T17:19:17;101058.47;;;14.16;50.23
46944;BME280;32678;43.852;25.952;2023-02-22T17:24:14;101069.00;;;14.16;50.31
46944;BME280;32678;43.852;25.952;2023-02-22T17:29:18;101079.09;;;14.06;50.20
46944;BME280;32678;43.852;25.952;2023-02-22T17:34:15;101061.78;;;13.99;49.84
46944;BME280;32678;43.852;25.952;2023-02-22T17:39:12;101073.38;;;13.53;51.17
46944;BME280;32678;43.852;25.952;2023-02-22T17:44:09;101074.94;;;13.35;51.28
46944;BME280;32678;43.852;25.952;2023-02-22T17:49:07;101072.81;;;13.45;50.92
46944;BME280;32678;43.852;25.952;2023-02-22T17:54:04;101081.06;;;13.36;50.51
46944;BME280;32678;43.852;25.952;2023-02-22T17:59:01;101067.44;;;13.48;49.91
46944;BME280;32678;43.852;25.952;2023-02-22T18:03:58;101064.28;;;13.60;49.58
46944;BME280;32678;43.852;25.952;2023-02-22T18:08:56;101065.69;;;13.69;49.43
46944;BME280;32678;43.852;25.952;2023-02-22T18:13:54;101071.41;;;13.36;50.53
46944;BME280;32678;43.852;25.952;2023-02-22T18:18:51;101064.91;;;13.23;50.86
46944;BME280;32678;43.852;25.952;2023-02-22T18:23:47;101062.56;;;12.92;51.46
46944;BME280;32678;43.852;25.952;2023-02-22T18:28:45;101066.69;;;12.99;51.16
46944;BME280;32678;43.852;25.952;2023-02-22T18:33:44;101068.84;;;12.65;51.57
46944;BME280;32678;43.852;25.952;2023-02-22T18:38:41;101046.81;;;12.68;51.03
46944;BME280;32678;43.852;25.952;2023-02-22T18:43:40;101066.66;;;12.28;52.07
46944;BME280;32678;43.852;25.952;2023-02-22T18:48:38;101060.88;;;12.19;52.38
46944;BME280;32678;43.852;25.952;2023-02-22T18:53:34;101066.03;;;12.22;52.05
46944;BME280;32678;43.852;25.952;2023-02-22T18:58:32;101070.31;;;12.49;51.29
46944;BME280;32678;43.852;25.952;2023-02-22T19:03:28;101076.69;;;12.17;51.26
46944;BME280;32678;43.852;25.952;2023-02-22T19:08:25;101076.72;;;11.91;51.89
46944;BME280;32678;43.852;25.952;2023-02-22T19:13:23;101082.41;;;12.03;51.52
46944;BME280;32678;43.852;25.952;2023-02-22T19:18:20;101087.75;;;12.02;51.41
46944;BME280;32678;43.852;25.952;2023-02-22T19:23:18;101092.44;;;11.92;51.10
46944;BME280;32678;43.852;25.952;2023-02-22T19:28:15;101103.28;;;12.08;50.74
46944;BME280;32678;43.852;25.952;2023-02-22T19:33:12;101109.88;;;11.95;51.11
46944;BME280;32678;43.852;25.952;2023-02-22T19:38:09;101086.28;;;12.18;50.19
46944;BME280;32678;43.852;25.952;2023-02-22T19:43:06;101102.00;;;12.46;49.67
46944;BME280;32678;43.852;25.952;2023-02-22T19:48:03;101103.13;;;12.62;49.42
46944;BME280;32678;43.852;25.952;2023-02-22T19:53:00;101108.84;;;12.75;49.09
46944;BME280;32678;43.852;25.952;2023-02-22T19:57:57;101104.56;;;12.71;48.89
46944;BME280;32678;43.852;25.952;2023-02-22T20:02:56;101103.22;;;12.61;49.16
46944;BME280;32678;43.852;25.952;2023-02-22T20:08:01;101097.25;;;12.31;49.74
46944;BME280;32678;43.852;25.952;2023-02-22T20:12:59;101100.72;;;12.06;50.75
46944;BME280;32678;43.852;25.952;2023-02-22T20:17:56;101102.53;;;11.78;51.90
46944;BME280;32678;43.852;25.952;2023-02-22T20:22:54;101098.25;;;11.76;52.49
46944;BME280;32678;43.852;25.952;2023-02-22T20:27:53;101080.78;;;11.73;52.22
46944;BME280;32678;43.852;25.952;2023-02-22T20:32:50;101095.66;;;12.00;52.06
46944;BME280;32678;43.852;25.952;2023-02-22T20:37:48;101091.31;;;11.99;52.37
46944;BME280;32678;43.852;25.952;2023-02-22T20:42:47;101095.41;;;12.08;51.48
46944;BME280;32678;43.852;25.952;2023-02-22T20:47:44;101096.31;;;11.81;52.26
46944;BME280;32678;43.852;25.952;2023-02-22T20:52:41;101095.25;;;11.86;52.32
46944;BME280;32678;43.852;25.952;2023-02-22T20:57:38;101098.09;;;12.06;52.74
46944;BME280;32678;43.852;25.952;2023-02-22T21:02:35;101106.28;;;12.22;52.98
46944;BME280;32678;43.852;25.952;2023-02-22T21:07:36;101087.72;;;12.27;53.03
46944;BME280;32678;43.852;25.952;2023-02-22T21:12:33;101104.50;;;12.24;53.26
46944;BME280;32678;43.852;25.952;2023-02-22T21:17:30;101112.19;;;12.30;52.35
46944;BME280;32678;43.852;25.952;2023-02-22T21:22:34;101108.03;;;12.23;52.73
46944;BME280;32678;43.852;25.952;2023-02-22T21:27:34;101114.19;;;12.22;52.21
46944;BME280;32678;43.852;25.952;2023-02-22T21:32:31;101089.44;;;12.03;51.90
46944;BME280;32678;43.852;25.952;2023-02-22T21:37:28;101104.75;;;11.90;51.80
46944;BME280;32678;43.852;25.952;2023-02-22T21:42:28;101108.78;;;11.74;51.78
46944;BME280;32678;43.852;25.952;2023-02-22T21:47:32;101111.38;;;11.18;53.30
46944;BME280;32678;43.852;25.952;2023-02-22T21:52:30;101115.69;;;10.90;54.20
46944;BME280;32678;43.852;25.952;2023-02-22T21:57:28;101109.94;;;11.08;53.85
46944;BME280;32678;43.852;25.952;2023-02-22T22:02:26;101110.56;;;11.44;52.66
46944;BME280;32678;43.852;25.952;2023-02-22T22:07:27;101095.34;;;11.55;51.88
46944;BME280;32678;43.852;25.952;2023-02-22T22:12:27;101111.91;;;11.87;51.00
46944;BME280;32678;43.852;25.952;2023-02-22T22:17:35;101121.63;;;11.83;51.17
46944;BME280;32678;43.852;25.952;2023-02-22T22:22:32;101122.41;;;11.87;50.97
46944;BME280;32678;43.852;25.952;2023-02-22T22:27:36;101125.47;;;11.14;52.67
46944;BME280;32678;43.852;25.952;2023-02-22T22:32:33;101128.06;;;10.85;53.66
46944;BME280;32678;43.852;25.952;2023-02-22T22:37:32;101134.25;;;10.84;53.52
46944;BME280;32678;43.852;25.952;2023-02-22T22:42:29;101138.47;;;10.90;53.15
46944;BME280;32678;43.852;25.952;2023-02-22T22:47:27;101138.34;;;10.29;54.15
46944;BME280;32678;43.852;25.952;2023-02-22T22:52:24;101140.03;;;9.96;55.27
46944;BME280;32678;43.852;25.952;2023-02-22T22:57:29;101142.16;;;9.79;56.54
46944;BME280;32678;43.852;25.952;2023-02-22T23:02:25;101142.09;;;9.82;56.69
46944;BME280;32678;43.852;25.952;2023-02-22T23:07:22;101144.88;;;9.76;56.88
46944;BME280;32678;43.852;25.952;2023-02-22T23:12:19;101141.41;;;10.11;55.87
46944;BME280;32678;43.852;25.952;2023-02-22T23:17:22;101139.72;;;10.09;55.82
46944;BME280;32678;43.852;25.952;2023-02-22T23:22:26;101135.09;;;10.20;55.36
46944;BME280;32678;43.852;25.952;2023-02-22T23:27:23;101148.88;;;10.26;54.64
46944;BME280;32678;43.852;25.952;2023-02-22T23:32:20;101147.00;;;10.31;53.66
46944;BME280;32678;43.852;25.952;2023-02-22T23:37:17;101145.31;;;9.93;54.16
46944;BME280;32678;43.852;25.952;2023-02-22T23:42:16;101153.28;;;9.89;54.12
46944;BME280;32678;43.852;25.952;2023-02-22T23:47:13;101153.22;;;9.92;53.85
46944;BME280;32678;43.852;25.952;2023-02-22T23:52:10;101156.13;;;10.17;53.02
46944;BME280;32678;43.852;25.952;2023-02-22T23:57:09;101159.19;;;9.97;52.63
